Terminal Aerodrome Forecast
Issued by NWS

Home | Current Version | Previous Version | Text Only | Print | Product List | Glossary On
Versions: 1 2 3 4 5 6 7 8 9 10 11 12 13 14 15 16 17 18 19
922
FTUS46 KEKA 151740
TAFCEC
TAF
KCEC 151740Z 1518/1618 30008KT P6SM FEW006 SCT025 BKN250
     FM152300 34011G17KT P6SM VCSH SCT009 SCT025 BKN060
      TEMPO 1600/1604 6SM BR BKN025
     FM160400 36010G16KT P6SM SCT025 SCT250
     FM160800 36007KT P6SM FEW250=

USA.gov is the U.S. government's official web portal to all federal, state and local government web resources and services.